sensor_id;sensor_type;location;lat;lon;timestamp;temperature;humidity
18287;DHT22;9269;50.838;12.094;2024-03-07T00:01:49;8.70;45.20
18287;DHT22;9269;50.838;12.094;2024-03-07T00:04:20;8.70;45.10
18287;DHT22;9269;50.838;12.094;2024-03-07T00:06:51;8.70;44.90
18287;DHT22;9269;50.838;12.094;2024-03-07T00:09:20;8.60;45.10
18287;DHT22;9269;50.838;12.094;2024-03-07T00:11:51;8.60;44.90
18287;DHT22;9269;50.838;12.094;2024-03-07T00:14:21;8.80;45.10
18287;DHT22;9269;50.838;12.094;2024-03-07T00:20:56;8.80;45.10
18287;DHT22;9269;50.838;12.094;2024-03-07T00:23:27;8.80;45.30
18287;DHT22;9269;50.838;12.094;2024-03-07T00:25:59;8.60;45.00
18287;DHT22;9269;50.838;12.094;2024-03-07T00:28:29;8.80;45.10
18287;DHT22;9269;50.838;12.094;2024-03-07T00:30:59;8.70;45.10
18287;DHT22;9269;50.838;12.094;2024-03-07T00:33:28;8.70;45.40
18287;DHT22;9269;50.838;12.094;2024-03-07T00:36:18;8.70;45.30
18287;DHT22;9269;50.838;12.094;2024-03-07T00:38:48;8.70;45.40
18287;DHT22;9269;50.838;12.094;2024-03-07T00:41:19;8.80;45.10
18287;DHT22;9269;50.838;12.094;2024-03-07T00:43:49;8.70;45.10
18287;DHT22;9269;50.838;12.094;2024-03-07T00:46:19;8.70;45.30
18287;DHT22;9269;50.838;12.094;2024-03-07T00:48:48;8.70;45.10
18287;DHT22;9269;50.838;12.094;2024-03-07T00:51:18;8.80;45.70
18287;DHT22;9269;50.838;12.094;2024-03-07T00:53:46;8.70;45.50
18287;DHT22;9269;50.838;12.094;2024-03-07T00:56:15;8.80;45.50
18287;DHT22;9269;50.838;12.094;2024-03-07T00:58:44;8.80;45.70
18287;DHT22;9269;50.838;12.094;2024-03-07T01:01:12;8.80;45.50
18287;DHT22;9269;50.838;12.094;2024-03-07T01:03:45;8.80;45.30
18287;DHT22;9269;50.838;12.094;2024-03-07T01:06:15;8.60;45.70
18287;DHT22;9269;50.838;12.094;2024-03-07T01:08:47;8.80;45.60
18287;DHT22;9269;50.838;12.094;2024-03-07T01:11:15;8.80;45.60
18287;DHT22;9269;50.838;12.094;2024-03-07T01:13:44;8.80;45.90
18287;DHT22;9269;50.838;12.094;2024-03-07T01:16:12;8.80;45.60
18287;DHT22;9269;50.838;12.094;2024-03-07T01:18:41;8.80;45.80
18287;DHT22;9269;50.838;12.094;2024-03-07T01:21:10;8.80;45.80
18287;DHT22;9269;50.838;12.094;2024-03-07T01:24:00;8.80;45.90
18287;DHT22;9269;50.838;12.094;2024-03-07T01:26:29;8.70;45.80
18287;DHT22;9269;50.838;12.094;2024-03-07T01:29:01;8.70;45.90
18287;DHT22;9269;50.838;12.094;2024-03-07T01:31:32;8.80;45.90
18287;DHT22;9269;50.838;12.094;2024-03-07T01:34:02;8.80;45.50
18287;DHT22;9269;50.838;12.094;2024-03-07T01:36:30;8.80;45.80
18287;DHT22;9269;50.838;12.094;2024-03-07T01:39:00;8.70;45.70
18287;DHT22;9269;50.838;12.094;2024-03-07T01:41:47;8.70;45.60
18287;DHT22;9269;50.838;12.094;2024-03-07T01:44:16;8.80;45.80
18287;DHT22;9269;50.838;12.094;2024-03-07T01:46:45;8.70;45.70
18287;DHT22;9269;50.838;12.094;2024-03-07T01:49:16;8.70;45.80
18287;DHT22;9269;50.838;12.094;2024-03-07T01:51:46;8.80;45.40
18287;DHT22;9269;50.838;12.094;2024-03-07T01:54:18;8.70;45.40
18287;DHT22;9269;50.838;12.094;2024-03-07T01:56:47;8.80;45.70
18287;DHT22;9269;50.838;12.094;2024-03-07T01:59:15;8.80;45.20
18287;DHT22;9269;50.838;12.094;2024-03-07T02:01:44;8.80;45.50
18287;DHT22;9269;50.838;12.094;2024-03-07T02:04:14;8.70;46.00
18287;DHT22;9269;50.838;12.094;2024-03-07T02:06:42;8.80;45.80
18287;DHT22;9269;50.838;12.094;2024-03-07T02:09:13;8.70;46.00
18287;DHT22;9269;50.838;12.094;2024-03-07T02:11:48;8.70;45.60
18287;DHT22;9269;50.838;12.094;2024-03-07T02:14:20;8.70;45.80
18287;DHT22;9269;50.838;12.094;2024-03-07T02:16:51;8.70;45.20
18287;DHT22;9269;50.838;12.094;2024-03-07T02:19:19;8.60;45.50
18287;DHT22;9269;50.838;12.094;2024-03-07T02:21:49;8.70;45.70
18287;DHT22;9269;50.838;12.094;2024-03-07T02:24:17;8.60;45.70
18287;DHT22;9269;50.838;12.094;2024-03-07T02:26:46;8.50;45.80
18287;DHT22;9269;50.838;12.094;2024-03-07T02:29:34;8.60;46.00
18287;DHT22;9269;50.838;12.094;2024-03-07T02:32:03;8.60;45.20
18287;DHT22;9269;50.838;12.094;2024-03-07T02:34:34;8.70;46.00
18287;DHT22;9269;50.838;12.094;2024-03-07T02:37:05;8.60;45.50
18287;DHT22;9269;50.838;12.094;2024-03-07T02:39:36;8.50;45.70
18287;DHT22;9269;50.838;12.094;2024-03-07T02:42:05;8.60;45.90
18287;DHT22;9269;50.838;12.094;2024-03-07T02:44:33;8.70;45.60
18287;DHT22;9269;50.838;12.094;2024-03-07T02:47:18;8.70;45.50
18287;DHT22;9269;50.838;12.094;2024-03-07T02:49:46;8.70;45.80
18287;DHT22;9269;50.838;12.094;2024-03-07T02:52:19;8.70;45.90
18287;DHT22;9269;50.838;12.094;2024-03-07T02:54:50;8.70;45.50
18287;DHT22;9269;50.838;12.094;2024-03-07T02:57:21;8.60;45.50
18287;DHT22;9269;50.838;12.094;2024-03-07T02:59:50;8.60;45.60
18287;DHT22;9269;50.838;12.094;2024-03-07T03:02:18;8.70;45.50
18287;DHT22;9269;50.838;12.094;2024-03-07T03:04:47;8.70;45.30
18287;DHT22;9269;50.838;12.094;2024-03-07T03:07:16;8.60;45.50
18287;DHT22;9269;50.838;12.094;2024-03-07T03:09:47;8.70;45.80
18287;DHT22;9269;50.838;12.094;2024-03-07T03:12:16;8.50;45.60
18287;DHT22;9269;50.838;12.094;2024-03-07T03:14:55;8.60;45.90
18287;DHT22;9269;50.838;12.094;2024-03-07T03:17:24;8.50;45.90
18287;DHT22;9269;50.838;12.094;2024-03-07T03:19:54;8.50;46.00
18287;DHT22;9269;50.838;12.094;2024-03-07T03:22:25;8.50;46.40
18287;DHT22;9269;50.838;12.094;2024-03-07T03:24:55;8.60;46.20
18287;DHT22;9269;50.838;12.094;2024-03-07T03:27:23;8.50;46.70
18287;DHT22;9269;50.838;12.094;2024-03-07T03:29:51;8.40;46.60
18287;DHT22;9269;50.838;12.094;2024-03-07T03:32:20;8.30;47.00
18287;DHT22;9269;50.838;12.094;2024-03-07T03:35:06;8.50;47.20
18287;DHT22;9269;50.838;12.094;2024-03-07T03:37:37;8.50;47.10
18287;DHT22;9269;50.838;12.094;2024-03-07T03:40:10;8.50;47.40
18287;DHT22;9269;50.838;12.094;2024-03-07T03:42:40;8.50;47.70
18287;DHT22;9269;50.838;12.094;2024-03-07T03:45:09;8.50;47.80
18287;DHT22;9269;50.838;12.094;2024-03-07T03:47:42;8.40;48.10
18287;DHT22;9269;50.838;12.094;2024-03-07T03:50:12;8.40;48.20
18287;DHT22;9269;50.838;12.094;2024-03-07T03:52:56;8.40;48.20
18287;DHT22;9269;50.838;12.094;2024-03-07T03:55:26;8.50;48.30
18287;DHT22;9269;50.838;12.094;2024-03-07T03:57:57;8.40;48.20
18287;DHT22;9269;50.838;12.094;2024-03-07T04:00:29;8.40;48.70
18287;DHT22;9269;50.838;12.094;2024-03-07T04:03:00;8.50;48.60
18287;DHT22;9269;50.838;12.094;2024-03-07T04:05:32;8.50;48.70
18287;DHT22;9269;50.838;12.094;2024-03-07T04:08:00;8.50;48.90
18287;DHT22;9269;50.838;12.094;2024-03-07T04:10:30;8.60;49.10
18287;DHT22;9269;50.838;12.094;2024-03-07T04:12:59;8.60;48.60
18287;DHT22;9269;50.838;12.094;2024-03-07T04:15:27;8.50;48.70
18287;DHT22;9269;50.838;12.094;2024-03-07T04:18:02;8.60;48.60
18287;DHT22;9269;50.838;12.094;2024-03-07T04:20:32;8.70;48.70
18287;DHT22;9269;50.838;12.094;2024-03-07T04:23:03;8.60;48.80
18287;DHT22;9269;50.838;12.094;2024-03-07T04:25:33;8.50;48.70
18287;DHT22;9269;50.838;12.094;2024-03-07T04:28:05;8.70;48.40
18287;DHT22;9269;50.838;12.094;2024-03-07T04:30:34;8.60;48.60
18287;DHT22;9269;50.838;12.094;2024-03-07T04:33:03;8.60;48.50
18287;DHT22;9269;50.838;12.094;2024-03-07T04:35:33;8.70;48.50
18287;DHT22;9269;50.838;12.094;2024-03-07T04:38:03;8.60;48.60
18287;DHT22;9269;50.838;12.094;2024-03-07T04:40:57;8.60;48.70
18287;DHT22;9269;50.838;12.094;2024-03-07T04:43:28;8.60;48.70
18287;DHT22;9269;50.838;12.094;2024-03-07T04:46:00;8.60;48.80
18287;DHT22;9269;50.838;12.094;2024-03-07T04:48:31;8.70;48.50
18287;DHT22;9269;50.838;12.094;2024-03-07T04:51:02;8.60;48.60
18287;DHT22;9269;50.838;12.094;2024-03-07T04:53:31;8.80;48.90
18287;DHT22;9269;50.838;12.094;2024-03-07T04:56:16;8.70;49.00
18287;DHT22;9269;50.838;12.094;2024-03-07T04:58:46;8.70;49.00
18287;DHT22;9269;50.838;12.094;2024-03-07T05:01:34;8.70;49.00
18287;DHT22;9269;50.838;12.094;2024-03-07T05:04:05;8.70;49.20
18287;DHT22;9269;50.838;12.094;2024-03-07T05:06:35;8.60;49.30
18287;DHT22;9269;50.838;12.094;2024-03-07T05:09:08;8.80;49.50
18287;DHT22;9269;50.838;12.094;2024-03-07T05:11:41;8.70;49.40
18287;DHT22;9269;50.838;12.094;2024-03-07T05:14:10;8.70;50.00
18287;DHT22;9269;50.838;12.094;2024-03-07T05:16:55;8.70;49.80
18287;DHT22;9269;50.838;12.094;2024-03-07T05:19:34;8.60;49.70
18287;DHT22;9269;50.838;12.094;2024-03-07T05:22:03;8.70;49.90
18287;DHT22;9269;50.838;12.094;2024-03-07T05:24:36;8.80;49.90
18287;DHT22;9269;50.838;12.094;2024-03-07T05:27:07;8.80;49.90
18287;DHT22;9269;50.838;12.094;2024-03-07T05:29:41;8.80;49.50
18287;DHT22;9269;50.838;12.094;2024-03-07T05:32:21;8.70;49.80
18287;DHT22;9269;50.838;12.094;2024-03-07T05:34:51;8.70;50.10
18287;DHT22;9269;50.838;12.094;2024-03-07T05:37:21;8.70;50.00
18287;DHT22;9269;50.838;12.094;2024-03-07T05:39:51;8.80;50.10
18287;DHT22;9269;50.838;12.094;2024-03-07T05:42:21;8.70;50.10
18287;DHT22;9269;50.838;12.094;2024-03-07T05:44:52;8.70;50.00
18287;DHT22;9269;50.838;12.094;2024-03-07T05:47:24;8.60;50.10
18287;DHT22;9269;50.838;12.094;2024-03-07T05:49:56;8.70;50.10
18287;DHT22;9269;50.838;12.094;2024-03-07T05:52:27;8.60;50.00
18287;DHT22;9269;50.838;12.094;2024-03-07T05:54:59;8.70;50.30
18287;DHT22;9269;50.838;12.094;2024-03-07T05:57:28;8.80;50.10
18287;DHT22;9269;50.838;12.094;2024-03-07T05:59:57;8.80;50.00
18287;DHT22;9269;50.838;12.094;2024-03-07T06:02:26;8.60;50.50
18287;DHT22;9269;50.838;12.094;2024-03-07T06:04:54;8.70;50.50
18287;DHT22;9269;50.838;12.094;2024-03-07T06:07:23;8.70;50.50
18287;DHT22;9269;50.838;12.094;2024-03-07T06:09:53;8.70;50.60
18287;DHT22;9269;50.838;12.094;2024-03-07T06:12:24;8.70;50.30
18287;DHT22;9269;50.838;12.094;2024-03-07T06:14:59;8.80;50.90
18287;DHT22;9269;50.838;12.094;2024-03-07T06:17:29;8.70;50.30
18287;DHT22;9269;50.838;12.094;2024-03-07T06:19:58;8.80;50.40
18287;DHT22;9269;50.838;12.094;2024-03-07T06:22:27;8.80;51.00
18287;DHT22;9269;50.838;12.094;2024-03-07T06:24:56;8.80;50.60
18287;DHT22;9269;50.838;12.094;2024-03-07T06:27:31;8.80;50.60
18287;DHT22;9269;50.838;12.094;2024-03-07T06:30:24;8.80;50.60
18287;DHT22;9269;50.838;12.094;2024-03-07T06:32:56;8.60;50.70
18287;DHT22;9269;50.838;12.094;2024-03-07T06:35:27;8.80;50.10
18287;DHT22;9269;50.838;12.094;2024-03-07T06:37:58;8.80;50.70
18287;DHT22;9269;50.838;12.094;2024-03-07T06:40:29;8.70;51.10
18287;DHT22;9269;50.838;12.094;2024-03-07T06:42:59;8.70;51.50
18287;DHT22;9269;50.838;12.094;2024-03-07T06:45:29;8.70;51.80
18287;DHT22;9269;50.838;12.094;2024-03-07T06:47:59;8.80;52.00
18287;DHT22;9269;50.838;12.094;2024-03-07T06:50:28;8.80;52.00
18287;DHT22;9269;50.838;12.094;2024-03-07T06:53:07;8.80;51.70
18287;DHT22;9269;50.838;12.094;2024-03-07T06:55:39;8.80;51.80
18287;DHT22;9269;50.838;12.094;2024-03-07T06:58:10;8.90;51.90
18287;DHT22;9269;50.838;12.094;2024-03-07T07:00:43;8.80;51.80
18287;DHT22;9269;50.838;12.094;2024-03-07T07:03:13;8.80;52.00
18287;DHT22;9269;50.838;12.094;2024-03-07T07:05:41;8.80;51.90
18287;DHT22;9269;50.838;12.094;2024-03-07T07:08:11;8.80;52.00
18287;DHT22;9269;50.838;12.094;2024-03-07T07:10:41;8.90;51.90
18287;DHT22;9269;50.838;12.094;2024-03-07T07:13:29;8.90;51.80
18287;DHT22;9269;50.838;12.094;2024-03-07T07:16:03;8.70;52.50
18287;DHT22;9269;50.838;12.094;2024-03-07T07:18:34;8.70;52.50
18287;DHT22;9269;50.838;12.094;2024-03-07T07:21:05;8.80;53.00
18287;DHT22;9269;50.838;12.094;2024-03-07T07:23:40;8.80;53.20
18287;DHT22;9269;50.838;12.094;2024-03-07T07:26:08;8.80;53.80
18287;DHT22;9269;50.838;12.094;2024-03-07T07:28:37;8.80;54.00
18287;DHT22;9269;50.838;12.094;2024-03-07T07:31:07;8.80;54.60
18287;DHT22;9269;50.838;12.094;2024-03-07T07:33:37;8.80;55.00
18287;DHT22;9269;50.838;12.094;2024-03-07T07:36:07;8.80;55.00
18287;DHT22;9269;50.838;12.094;2024-03-07T07:38:38;8.80;55.30
18287;DHT22;9269;50.838;12.094;2024-03-07T07:41:08;8.80;55.60
18287;DHT22;9269;50.838;12.094;2024-03-07T07:43:40;8.80;56.00
18287;DHT22;9269;50.838;12.094;2024-03-07T07:46:11;8.90;55.90
18287;DHT22;9269;50.838;12.094;2024-03-07T07:48:40;8.90;56.00
18287;DHT22;9269;50.838;12.094;2024-03-07T07:51:09;8.90;56.40
18287;DHT22;9269;50.838;12.094;2024-03-07T07:53:38;9.00;56.00
18287;DHT22;9269;50.838;12.094;2024-03-07T07:56:08;9.00;55.90
18287;DHT22;9269;50.838;12.094;2024-03-07T07:58:39;8.90;56.00
18287;DHT22;9269;50.838;12.094;2024-03-07T08:01:12;8.80;55.80
18287;DHT22;9269;50.838;12.094;2024-03-07T08:03:46;8.90;55.50
18287;DHT22;9269;50.838;12.094;2024-03-07T08:06:17;8.80;54.80
18287;DHT22;9269;50.838;12.094;2024-03-07T08:08:46;8.70;54.30
18287;DHT22;9269;50.838;12.094;2024-03-07T08:11:14;8.70;54.10
18287;DHT22;9269;50.838;12.094;2024-03-07T08:13:43;8.70;53.80
18287;DHT22;9269;50.838;12.094;2024-03-07T08:16:33;8.80;53.60
18287;DHT22;9269;50.838;12.094;2024-03-07T08:19:22;8.80;53.50
18287;DHT22;9269;50.838;12.094;2024-03-07T08:21:54;8.90;53.30
18287;DHT22;9269;50.838;12.094;2024-03-07T08:24:25;8.90;52.80
18287;DHT22;9269;50.838;12.094;2024-03-07T08:26:57;9.00;52.30
18287;DHT22;9269;50.838;12.094;2024-03-07T08:29:28;8.90;51.70
18287;DHT22;9269;50.838;12.094;2024-03-07T08:31:58;8.90;51.20
18287;DHT22;9269;50.838;12.094;2024-03-07T08:34:27;8.90;51.00
18287;DHT22;9269;50.838;12.094;2024-03-07T08:36:55;8.90;50.80
18287;DHT22;9269;50.838;12.094;2024-03-07T08:39:24;9.10;50.80
18287;DHT22;9269;50.838;12.094;2024-03-07T08:41:53;9.10;50.40
18287;DHT22;9269;50.838;12.094;2024-03-07T08:44:23;9.30;49.30
18287;DHT22;9269;50.838;12.094;2024-03-07T08:46:53;9.40;47.90
18287;DHT22;9269;50.838;12.094;2024-03-07T08:49:24;9.50;47.50
18287;DHT22;9269;50.838;12.094;2024-03-07T08:51:54;9.60;47.40
18287;DHT22;9269;50.838;12.094;2024-03-07T08:54:26;9.50;46.70
18287;DHT22;9269;50.838;12.094;2024-03-07T08:56:55;9.60;46.00
18287;DHT22;9269;50.838;12.094;2024-03-07T08:59:24;9.80;45.60
18287;DHT22;9269;50.838;12.094;2024-03-07T09:01:52;9.80;45.00
18287;DHT22;9269;50.838;12.094;2024-03-07T09:04:24;10.00;44.80
18287;DHT22;9269;50.838;12.094;2024-03-07T09:06:56;10.10;42.90
18287;DHT22;9269;50.838;12.094;2024-03-07T09:09:27;10.10;42.40
18287;DHT22;9269;50.838;12.094;2024-03-07T09:11:57;10.20;42.40
18287;DHT22;9269;50.838;12.094;2024-03-07T09:14:28;10.40;42.10
18287;DHT22;9269;50.838;12.094;2024-03-07T09:16:57;10.60;42.20
18287;DHT22;9269;50.838;12.094;2024-03-07T09:19:27;10.70;41.50
18287;DHT22;9269;50.838;12.094;2024-03-07T09:21:56;10.70;41.00
18287;DHT22;9269;50.838;12.094;2024-03-07T09:24:44;10.80;40.90
18287;DHT22;9269;50.838;12.094;2024-03-07T09:27:15;10.60;41.20
18287;DHT22;9269;50.838;12.094;2024-03-07T09:29:49;10.60;41.80
18287;DHT22;9269;50.838;12.094;2024-03-07T09:32:21;10.50;41.60
18287;DHT22;9269;50.838;12.094;2024-03-07T09:34:54;10.40;42.10
18287;DHT22;9269;50.838;12.094;2024-03-07T09:37:23;10.40;41.70
18287;DHT22;9269;50.838;12.094;2024-03-07T09:39:51;10.40;41.90
18287;DHT22;9269;50.838;12.094;2024-03-07T09:42:21;10.50;41.40
18287;DHT22;9269;50.838;12.094;2024-03-07T09:44:50;10.50;40.60
18287;DHT22;9269;50.838;12.094;2024-03-07T09:47:22;10.70;41.00
18287;DHT22;9269;50.838;12.094;2024-03-07T09:49:56;10.70;39.60
18287;DHT22;9269;50.838;12.094;2024-03-07T09:52:27;10.70;39.00
18287;DHT22;9269;50.838;12.094;2024-03-07T09:54:59;10.80;38.80
18287;DHT22;9269;50.838;12.094;2024-03-07T09:57:29;10.70;39.80
18287;DHT22;9269;50.838;12.094;2024-03-07T10:00:06;10.80;39.60
18287;DHT22;9269;50.838;12.094;2024-03-07T10:02:36;10.80;39.80
18287;DHT22;9269;50.838;12.094;2024-03-07T10:05:13;10.90;40.00
18287;DHT22;9269;50.838;12.094;2024-03-07T10:07:43;11.00;39.40
18287;DHT22;9269;50.838;12.094;2024-03-07T10:10:14;11.10;39.50
18287;DHT22;9269;50.838;12.094;2024-03-07T10:12:45;11.20;39.00
18287;DHT22;9269;50.838;12.094;2024-03-07T10:15:17;11.30;38.40
18287;DHT22;9269;50.838;12.094;2024-03-07T10:17:47;11.20;38.00
18287;DHT22;9269;50.838;12.094;2024-03-07T10:20:19;11.20;38.00
18287;DHT22;9269;50.838;12.094;2024-03-07T10:22:50;11.20;38.10
18287;DHT22;9269;50.838;12.094;2024-03-07T10:25:20;11.10;37.90
18287;DHT22;9269;50.838;12.094;2024-03-07T10:27:51;10.90;37.90
18287;DHT22;9269;50.838;12.094;2024-03-07T10:30:23;10.80;37.80
18287;DHT22;9269;50.838;12.094;2024-03-07T10:32:56;10.90;37.40
18287;DHT22;9269;50.838;12.094;2024-03-07T10:35:31;10.80;37.10
18287;DHT22;9269;50.838;12.094;2024-03-07T10:38:03;10.70;37.60
18287;DHT22;9269;50.838;12.094;2024-03-07T10:40:39;10.70;38.00
18287;DHT22;9269;50.838;12.094;2024-03-07T10:43:11;10.80;37.80
18287;DHT22;9269;50.838;12.094;2024-03-07T10:45:44;10.90;37.60
18287;DHT22;9269;50.838;12.094;2024-03-07T10:48:18;10.90;37.50
18287;DHT22;9269;50.838;12.094;2024-03-07T10:51:02;10.90;37.30
18287;DHT22;9269;50.838;12.094;2024-03-07T10:53:45;10.80;36.10
18287;DHT22;9269;50.838;12.094;2024-03-07T10:56:41;10.70;36.30
18287;DHT22;9269;50.838;12.094;2024-03-07T10:59:16;10.60;36.50
18287;DHT22;9269;50.838;12.094;2024-03-07T11:01:57;10.60;36.90
18287;DHT22;9269;50.838;12.094;2024-03-07T11:04:28;10.60;36.10
18287;DHT22;9269;50.838;12.094;2024-03-07T11:06:57;10.50;36.00
18287;DHT22;9269;50.838;12.094;2024-03-07T11:09:45;10.40;35.10
18287;DHT22;9269;50.838;12.094;2024-03-07T11:12:15;10.40;34.60
18287;DHT22;9269;50.838;12.094;2024-03-07T11:14:48;10.40;35.00
18287;DHT22;9269;50.838;12.094;2024-03-07T11:17:20;10.30;35.20
18287;DHT22;9269;50.838;12.094;2024-03-07T11:19:52;10.30;35.00
18287;DHT22;9269;50.838;12.094;2024-03-07T11:22:32;10.30;34.90
18287;DHT22;9269;50.838;12.094;2024-03-07T11:25:04;10.20;35.00
18287;DHT22;9269;50.838;12.094;2024-03-07T11:27:37;10.20;35.40
18287;DHT22;9269;50.838;12.094;2024-03-07T11:30:09;10.30;35.80
18287;DHT22;9269;50.838;12.094;2024-03-07T11:32:39;10.30;35.70
18287;DHT22;9269;50.838;12.094;2024-03-07T11:35:12;10.30;35.20
18287;DHT22;9269;50.838;12.094;2024-03-07T11:37:44;10.30;35.40
18287;DHT22;9269;50.838;12.094;2024-03-07T11:40:44;10.30;35.00
18287;DHT22;9269;50.838;12.094;2024-03-07T11:43:19;10.30;34.80
18287;DHT22;9269;50.838;12.094;2024-03-07T11:45:51;10.20;34.40
18287;DHT22;9269;50.838;12.094;2024-03-07T11:48:39;10.20;34.90
18287;DHT22;9269;50.838;12.094;2024-03-07T11:51:12;10.00;34.70
18287;DHT22;9269;50.838;12.094;2024-03-07T11:53:43;10.20;34.10
18287;DHT22;9269;50.838;12.094;2024-03-07T11:56:11;10.10;34.30
18287;DHT22;9269;50.838;12.094;2024-03-07T11:58:49;10.20;34.90
18287;DHT22;9269;50.838;12.094;2024-03-07T12:01:26;10.30;35.10
18287;DHT22;9269;50.838;12.094;2024-03-07T12:03:58;10.40;34.80
18287;DHT22;9269;50.838;12.094;2024-03-07T12:06:30;10.30;34.00
18287;DHT22;9269;50.838;12.094;2024-03-07T12:09:06;10.40;34.10
18287;DHT22;9269;50.838;12.094;2024-03-07T12:11:43;10.40;34.30
18287;DHT22;9269;50.838;12.094;2024-03-07T12:14:12;10.50;34.80
18287;DHT22;9269;50.838;12.094;2024-03-07T12:16:40;10.40;34.90
18287;DHT22;9269;50.838;12.094;2024-03-07T12:19:25;10.40;34.80
18287;DHT22;9269;50.838;12.094;2024-03-07T12:21:57;10.50;34.50
18287;DHT22;9269;50.838;12.094;2024-03-07T12:24:31;10.40;34.20
18287;DHT22;9269;50.838;12.094;2024-03-07T12:27:07;10.40;33.70
18287;DHT22;9269;50.838;12.094;2024-03-07T12:29:39;10.40;33.20
18287;DHT22;9269;50.838;12.094;2024-03-07T12:32:12;10.40;32.90
18287;DHT22;9269;50.838;12.094;2024-03-07T12:34:43;10.40;34.30
18287;DHT22;9269;50.838;12.094;2024-03-07T12:37:13;10.40;34.00
18287;DHT22;9269;50.838;12.094;2024-03-07T12:39:45;10.40;33.50
18287;DHT22;9269;50.838;12.094;2024-03-07T12:42:17;10.30;33.60
18287;DHT22;9269;50.838;12.094;2024-03-07T12:44:47;10.40;34.40
18287;DHT22;9269;50.838;12.094;2024-03-07T12:47:18;10.30;34.10
18287;DHT22;9269;50.838;12.094;2024-03-07T12:49:49;10.30;34.30
18287;DHT22;9269;50.838;12.094;2024-03-07T12:52:17;10.30;34.50
18287;DHT22;9269;50.838;12.094;2024-03-07T12:54:47;10.30;34.10
18287;DHT22;9269;50.838;12.094;2024-03-07T12:57:17;10.30;34.10
18287;DHT22;9269;50.838;12.094;2024-03-07T12:59:46;10.20;34.40
18287;DHT22;9269;50.838;12.094;2024-03-07T13:02:14;10.20;34.40
18287;DHT22;9269;50.838;12.094;2024-03-07T13:04:46;10.20;33.90
18287;DHT22;9269;50.838;12.094;2024-03-07T13:07:19;10.20;34.60
18287;DHT22;9269;50.838;12.094;2024-03-07T13:09:52;10.20;34.10
18287;DHT22;9269;50.838;12.094;2024-03-07T13:12:23;10.20;34.00
18287;DHT22;9269;50.838;12.094;2024-03-07T13:14:52;10.10;34.00
18287;DHT22;9269;50.838;12.094;2024-03-07T13:17:20;10.00;34.10
18287;DHT22;9269;50.838;12.094;2024-03-07T13:19:51;10.00;34.50
18287;DHT22;9269;50.838;12.094;2024-03-07T13:22:27;10.00;34.40
18287;DHT22;9269;50.838;12.094;2024-03-07T13:25:19;10.10;34.80
18287;DHT22;9269;50.838;12.094;2024-03-07T13:27:56;10.00;34.90
18287;DHT22;9269;50.838;12.094;2024-03-07T13:30:30;10.00;34.80
18287;DHT22;9269;50.838;12.094;2024-03-07T13:33:01;10.00;34.60
18287;DHT22;9269;50.838;12.094;2024-03-07T13:35:32;10.00;34.90
18287;DHT22;9269;50.838;12.094;2024-03-07T13:38:03;10.00;34.60
18287;DHT22;9269;50.838;12.094;2024-03-07T13:40:34;9.90;33.50
18287;DHT22;9269;50.838;12.094;2024-03-07T13:43:06;9.90;33.60
18287;DHT22;9269;50.838;12.094;2024-03-07T13:45:36;9.90;34.20
18287;DHT22;9269;50.838;12.094;2024-03-07T13:48:10;9.90;34.60
18287;DHT22;9269;50.838;12.094;2024-03-07T13:50:44;9.90;35.00
18287;DHT22;9269;50.838;12.094;2024-03-07T13:53:27;10.00;34.40
18287;DHT22;9269;50.838;12.094;2024-03-07T13:56:31;10.10;34.60
18287;DHT22;9269;50.838;12.094;2024-03-07T14:02:30;10.10;33.50
18287;DHT22;9269;50.838;12.094;2024-03-07T14:05:38;10.10;33.80
18287;DHT22;9269;50.838;12.094;2024-03-07T14:08:28;10.20;33.60
18287;DHT22;9269;50.838;12.094;2024-03-07T14:11:31;10.10;33.70
18287;DHT22;9269;50.838;12.094;2024-03-07T14:14:34;10.10;33.60
18287;DHT22;9269;50.838;12.094;2024-03-07T14:20:56;10.00;33.80
18287;DHT22;9269;50.838;12.094;2024-03-07T14:23:42;10.10;34.20
18287;DHT22;9269;50.838;12.094;2024-03-07T14:26:45;10.00;34.30
18287;DHT22;9269;50.838;12.094;2024-03-07T14:29:24;10.00;33.90
18287;DHT22;9269;50.838;12.094;2024-03-07T14:31:55;9.90;34.10
18287;DHT22;9269;50.838;12.094;2024-03-07T14:34:36;9.90;34.30
18287;DHT22;9269;50.838;12.094;2024-03-07T14:37:16;9.80;34.50
18287;DHT22;9269;50.838;12.094;2024-03-07T14:39:50;9.70;34.70
18287;DHT22;9269;50.838;12.094;2024-03-07T14:42:21;9.70;34.50
18287;DHT22;9269;50.838;12.094;2024-03-07T14:45:12;9.70;34.90
18287;DHT22;9269;50.838;12.094;2024-03-07T14:47:44;9.80;34.90
18287;DHT22;9269;50.838;12.094;2024-03-07T14:50:13;9.90;34.70
18287;DHT22;9269;50.838;12.094;2024-03-07T14:52:46;9.90;34.70
18287;DHT22;9269;50.838;12.094;2024-03-07T14:55:18;9.80;34.40
18287;DHT22;9269;50.838;12.094;2024-03-07T14:57:50;9.80;34.60
18287;DHT22;9269;50.838;12.094;2024-03-07T15:00:19;9.80;34.60
18287;DHT22;9269;50.838;12.094;2024-03-07T15:03:02;9.80;34.70
18287;DHT22;9269;50.838;12.094;2024-03-07T15:05:33;9.80;34.50
18287;DHT22;9269;50.838;12.094;2024-03-07T15:08:02;9.80;34.40
18287;DHT22;9269;50.838;12.094;2024-03-07T15:10:33;9.70;34.70
18287;DHT22;9269;50.838;12.094;2024-03-07T15:13:04;9.50;35.10
18287;DHT22;9269;50.838;12.094;2024-03-07T15:15:37;9.60;35.20
18287;DHT22;9269;50.838;12.094;2024-03-07T15:18:10;9.60;35.10
18287;DHT22;9269;50.838;12.094;2024-03-07T15:20:42;9.60;35.10
18287;DHT22;9269;50.838;12.094;2024-03-07T15:23:13;9.50;34.60
18287;DHT22;9269;50.838;12.094;2024-03-07T15:25:41;9.40;34.90
18287;DHT22;9269;50.838;12.094;2024-03-07T15:28:11;9.30;35.10
18287;DHT22;9269;50.838;12.094;2024-03-07T15:30:39;9.30;35.40
18287;DHT22;9269;50.838;12.094;2024-03-07T15:33:09;9.20;35.60
18287;DHT22;9269;50.838;12.094;2024-03-07T15:35:57;9.20;35.80
18287;DHT22;9269;50.838;12.094;2024-03-07T15:38:27;9.20;35.80
18287;DHT22;9269;50.838;12.094;2024-03-07T15:40:59;9.20;36.00
18287;DHT22;9269;50.838;12.094;2024-03-07T15:43:33;9.00;36.00
18287;DHT22;9269;50.838;12.094;2024-03-07T15:46:01;9.10;35.80
18287;DHT22;9269;50.838;12.094;2024-03-07T15:48:31;9.10;35.70
18287;DHT22;9269;50.838;12.094;2024-03-07T15:51:00;9.00;36.00
18287;DHT22;9269;50.838;12.094;2024-03-07T15:53:29;9.00;36.10
18287;DHT22;9269;50.838;12.094;2024-03-07T15:56:01;8.90;36.50
18287;DHT22;9269;50.838;12.094;2024-03-07T15:58:33;8.90;36.00
18287;DHT22;9269;50.838;12.094;2024-03-07T16:01:04;8.80;36.00
18287;DHT22;9269;50.838;12.094;2024-03-07T16:03:36;8.80;36.00
18287;DHT22;9269;50.838;12.094;2024-03-07T16:06:12;8.70;36.10
18287;DHT22;9269;50.838;12.094;2024-03-07T16:08:44;8.70;36.30
18287;DHT22;9269;50.838;12.094;2024-03-07T16:11:13;8.60;36.50
18287;DHT22;9269;50.838;12.094;2024-03-07T16:13:47;8.60;36.30
18287;DHT22;9269;50.838;12.094;2024-03-07T16:16:16;8.40;36.50
18287;DHT22;9269;50.838;12.094;2024-03-07T16:18:47;8.50;36.40
18287;DHT22;9269;50.838;12.094;2024-03-07T16:21:17;8.50;36.30
18287;DHT22;9269;50.838;12.094;2024-03-07T16:23:47;8.50;36.30
18287;DHT22;9269;50.838;12.094;2024-03-07T16:26:17;8.40;36.10
18287;DHT22;9269;50.838;12.094;2024-03-07T16:28:50;8.40;36.30